sensor_id;sensor_type;location;lat;lon;timestamp;temperature;humidity
35497;DHT22;21609;49.298;6.844;2022-12-29T00:01:16;17.30;53.10
35497;DHT22;21609;49.298;6.844;2022-12-29T00:03:41;17.30;53.00
35497;DHT22;21609;49.298;6.844;2022-12-29T00:06:07;17.30;53.10
35497;DHT22;21609;49.298;6.844;2022-12-29T00:08:33;17.30;53.00
35497;DHT22;21609;49.298;6.844;2022-12-29T00:11:09;17.30;53.10
35497;DHT22;21609;49.298;6.844;2022-12-29T00:13:35;17.30;53.00
35497;DHT22;21609;49.298;6.844;2022-12-29T00:16:19;17.30;53.10
35497;DHT22;21609;49.298;6.844;2022-12-29T00:18:45;17.30;53.10
35497;DHT22;21609;49.298;6.844;2022-12-29T00:21:14;17.30;53.10
35497;DHT22;21609;49.298;6.844;2022-12-29T00:23:59;17.30;53.60
35497;DHT22;21609;49.298;6.844;2022-12-29T00:26:44;17.30;53.10
35497;DHT22;21609;49.298;6.844;2022-12-29T00:29:29;17.30;53.20
35497;DHT22;21609;49.298;6.844;2022-12-29T00:32:13;17.30;53.20
35497;DHT22;21609;49.298;6.844;2022-12-29T00:34:57;17.30;53.20
35497;DHT22;21609;49.298;6.844;2022-12-29T00:37:42;17.20;53.20
35497;DHT22;21609;49.298;6.844;2022-12-29T00:40:27;17.20;53.20
35497;DHT22;21609;49.298;6.844;2022-12-29T00:43:10;17.20;53.20
35497;DHT22;21609;49.298;6.844;2022-12-29T00:45:55;17.20;53.20
35497;DHT22;21609;49.298;6.844;2022-12-29T00:48:20;17.20;53.20
35497;DHT22;21609;49.298;6.844;2022-12-29T00:51:05;17.20;53.20
35497;DHT22;21609;49.298;6.844;2022-12-29T00:53:31;17.20;53.30
35497;DHT22;21609;49.298;6.844;2022-12-29T00:55:56;17.20;53.20
35497;DHT22;21609;49.298;6.844;2022-12-29T00:58:22;17.20;53.30
35497;DHT22;21609;49.298;6.844;2022-12-29T01:00:47;17.20;53.30
35497;DHT22;21609;49.298;6.844;2022-12-29T01:03:13;17.20;53.30
35497;DHT22;21609;49.298;6.844;2022-12-29T01:05:38;17.20;53.30
35497;DHT22;21609;49.298;6.844;2022-12-29T01:08:04;17.20;53.30
35497;DHT22;21609;49.298;6.844;2022-12-29T01:10:29;17.20;53.40
35497;DHT22;21609;49.298;6.844;2022-12-29T01:12:55;17.10;53.30
35497;DHT22;21609;49.298;6.844;2022-12-29T01:15:21;17.10;53.30
35497;DHT22;21609;49.298;6.844;2022-12-29T01:17:46;17.10;53.40
35497;DHT22;21609;49.298;6.844;2022-12-29T01:20:12;17.10;53.40
35497;DHT22;21609;49.298;6.844;2022-12-29T01:22:38;17.10;53.40
35497;DHT22;21609;49.298;6.844;2022-12-29T01:25:05;17.10;53.40
35497;DHT22;21609;49.298;6.844;2022-12-29T01:27:30;17.10;53.40
35497;DHT22;21609;49.298;6.844;2022-12-29T01:29:56;17.10;54.00
35497;DHT22;21609;49.298;6.844;2022-12-29T01:32:22;17.10;53.40
35497;DHT22;21609;49.298;6.844;2022-12-29T01:34:47;17.10;53.40
35497;DHT22;21609;49.298;6.844;2022-12-29T01:37:13;17.10;53.40
35497;DHT22;21609;49.298;6.844;2022-12-29T01:39:38;17.10;53.40
35497;DHT22;21609;49.298;6.844;2022-12-29T01:42:04;17.10;53.50
35497;DHT22;21609;49.298;6.844;2022-12-29T01:44:54;17.10;53.50
35497;DHT22;21609;49.298;6.844;2022-12-29T01:49:57;17.10;53.50
35497;DHT22;21609;49.298;6.844;2022-12-29T01:52:26;17.10;53.50
35497;DHT22;21609;49.298;6.844;2022-12-29T01:54:55;17.00;53.50
35497;DHT22;21609;49.298;6.844;2022-12-29T01:57:25;17.00;53.50
35497;DHT22;21609;49.298;6.844;2022-12-29T01:59:56;17.00;53.60
35497;DHT22;21609;49.298;6.844;2022-12-29T02:02:24;17.00;53.50
35497;DHT22;21609;49.298;6.844;2022-12-29T02:04:50;17.00;53.60
35497;DHT22;21609;49.298;6.844;2022-12-29T02:07:20;17.00;53.50
35497;DHT22;21609;49.298;6.844;2022-12-29T02:09:50;17.00;53.50
35497;DHT22;21609;49.298;6.844;2022-12-29T02:12:17;17.00;53.50
35497;DHT22;21609;49.298;6.844;2022-12-29T02:14:44;17.00;53.60
35497;DHT22;21609;49.298;6.844;2022-12-29T02:17:23;17.00;53.60
35497;DHT22;21609;49.298;6.844;2022-12-29T02:22:52;17.00;53.70
35497;DHT22;21609;49.298;6.844;2022-12-29T02:30:45;16.90;53.60
35497;DHT22;21609;49.298;6.844;2022-12-29T02:46:57;16.90;53.70
35497;DHT22;21609;49.298;6.844;2022-12-29T02:50:12;16.90;53.60
35497;DHT22;21609;49.298;6.844;2022-12-29T02:52:24;16.90;53.70
35497;DHT22;21609;49.298;6.844;2022-12-29T02:54:54;16.80;53.70
35497;DHT22;21609;49.298;6.844;2022-12-29T02:59:53;16.90;53.70
35497;DHT22;21609;49.298;6.844;2022-12-29T03:07:25;16.80;53.70
35497;DHT22;21609;49.298;6.844;2022-12-29T03:12:56;16.80;53.80
35497;DHT22;21609;49.298;6.844;2022-12-29T03:15:55;16.90;53.80
35497;DHT22;21609;49.298;6.844;2022-12-29T03:18:38;16.80;53.70
35497;DHT22;21609;49.298;6.844;2022-12-29T03:21:25;16.80;53.70
35497;DHT22;21609;49.298;6.844;2022-12-29T03:24:13;16.90;53.80
35497;DHT22;21609;49.298;6.844;2022-12-29T03:26:40;16.80;53.70
35497;DHT22;21609;49.298;6.844;2022-12-29T03:29:08;16.80;53.70
35497;DHT22;21609;49.298;6.844;2022-12-29T03:31:35;16.80;53.70
35497;DHT22;21609;49.298;6.844;2022-12-29T03:34:03;16.80;53.70
35497;DHT22;21609;49.298;6.844;2022-12-29T03:36:39;16.80;53.70
35497;DHT22;21609;49.298;6.844;2022-12-29T03:39:10;16.80;53.80
35497;DHT22;21609;49.298;6.844;2022-12-29T03:41:38;16.80;53.80
35497;DHT22;21609;49.298;6.844;2022-12-29T03:44:08;16.80;53.80
35497;DHT22;21609;49.298;6.844;2022-12-29T03:46:34;16.80;53.80
35497;DHT22;21609;49.298;6.844;2022-12-29T03:48:59;16.80;53.80
35497;DHT22;21609;49.298;6.844;2022-12-29T03:51:25;16.80;53.80
35497;DHT22;21609;49.298;6.844;2022-12-29T03:53:50;16.80;53.80
35497;DHT22;21609;49.298;6.844;2022-12-29T03:56:16;16.80;53.80
35497;DHT22;21609;49.298;6.844;2022-12-29T03:58:42;16.80;53.80
35497;DHT22;21609;49.298;6.844;2022-12-29T04:01:07;16.80;53.70
35497;DHT22;21609;49.298;6.844;2022-12-29T04:03:33;16.80;53.80
35497;DHT22;21609;49.298;6.844;2022-12-29T04:05:58;16.80;53.80
35497;DHT22;21609;49.298;6.844;2022-12-29T04:08:24;16.80;53.80
35497;DHT22;21609;49.298;6.844;2022-12-29T04:10:49;16.70;53.80
35497;DHT22;21609;49.298;6.844;2022-12-29T04:13:15;16.70;53.80
35497;DHT22;21609;49.298;6.844;2022-12-29T04:15:43;16.70;54.50
35497;DHT22;21609;49.298;6.844;2022-12-29T04:18:08;16.70;53.80
35497;DHT22;21609;49.298;6.844;2022-12-29T04:20:34;16.70;53.80
35497;DHT22;21609;49.298;6.844;2022-12-29T04:23:18;16.70;53.80
35497;DHT22;21609;49.298;6.844;2022-12-29T04:25:47;16.70;53.80
35497;DHT22;21609;49.298;6.844;2022-12-29T04:28:13;16.70;53.80
35497;DHT22;21609;49.298;6.844;2022-12-29T04:30:39;16.70;53.80
35497;DHT22;21609;49.298;6.844;2022-12-29T04:33:04;16.70;53.80
35497;DHT22;21609;49.298;6.844;2022-12-29T04:35:30;16.70;53.80
35497;DHT22;21609;49.298;6.844;2022-12-29T04:37:55;16.70;53.80
35497;DHT22;21609;49.298;6.844;2022-12-29T04:40:21;16.70;53.90
35497;DHT22;21609;49.298;6.844;2022-12-29T04:42:48;16.70;53.90
35497;DHT22;21609;49.298;6.844;2022-12-29T04:45:14;16.60;53.90
35497;DHT22;21609;49.298;6.844;2022-12-29T04:47:39;16.70;53.90
35497;DHT22;21609;49.298;6.844;2022-12-29T04:50:05;16.70;53.80
35497;DHT22;21609;49.298;6.844;2022-12-29T04:52:31;16.70;53.90
35497;DHT22;21609;49.298;6.844;2022-12-29T04:54:56;16.70;53.80
35497;DHT22;21609;49.298;6.844;2022-12-29T04:57:22;16.70;53.80
35497;DHT22;21609;49.298;6.844;2022-12-29T04:59:47;16.70;53.90
35497;DHT22;21609;49.298;6.844;2022-12-29T05:02:13;16.70;53.80
35497;DHT22;21609;49.298;6.844;2022-12-29T05:04:38;16.70;53.90
35497;DHT22;21609;49.298;6.844;2022-12-29T05:07:04;16.70;53.90
35497;DHT22;21609;49.298;6.844;2022-12-29T05:09:30;16.70;53.90
35497;DHT22;21609;49.298;6.844;2022-12-29T05:11:55;16.70;53.90
35497;DHT22;21609;49.298;6.844;2022-12-29T05:14:21;16.70;53.90
35497;DHT22;21609;49.298;6.844;2022-12-29T05:16:47;16.60;53.90
35497;DHT22;21609;49.298;6.844;2022-12-29T05:19:12;16.60;53.90
35497;DHT22;21609;49.298;6.844;2022-12-29T05:21:38;16.60;53.90
35497;DHT22;21609;49.298;6.844;2022-12-29T05:24:04;16.60;53.90
35497;DHT22;21609;49.298;6.844;2022-12-29T05:26:29;16.60;54.00
35497;DHT22;21609;49.298;6.844;2022-12-29T05:28:55;16.60;54.00
35497;DHT22;21609;49.298;6.844;2022-12-29T05:31:20;16.60;54.00
35497;DHT22;21609;49.298;6.844;2022-12-29T05:33:46;16.60;54.10
35497;DHT22;21609;49.298;6.844;2022-12-29T05:36:12;16.60;54.00
35497;DHT22;21609;49.298;6.844;2022-12-29T05:38:37;16.60;54.10
35497;DHT22;21609;49.298;6.844;2022-12-29T05:41:03;16.60;54.00
35497;DHT22;21609;49.298;6.844;2022-12-29T05:43:29;16.60;54.00
35497;DHT22;21609;49.298;6.844;2022-12-29T05:45:55;16.60;54.10
35497;DHT22;21609;49.298;6.844;2022-12-29T05:48:21;16.60;54.10
35497;DHT22;21609;49.298;6.844;2022-12-29T05:50:50;16.50;54.10
35497;DHT22;21609;49.298;6.844;2022-12-29T05:53:16;16.60;54.10
35497;DHT22;21609;49.298;6.844;2022-12-29T05:55:43;16.50;54.00
35497;DHT22;21609;49.298;6.844;2022-12-29T05:58:08;16.50;54.10
35497;DHT22;21609;49.298;6.844;2022-12-29T06:00:34;16.50;54.10
35497;DHT22;21609;49.298;6.844;2022-12-29T06:03:00;16.50;54.10
35497;DHT22;21609;49.298;6.844;2022-12-29T06:05:25;16.50;54.10
35497;DHT22;21609;49.298;6.844;2022-12-29T06:07:51;16.50;54.10
35497;DHT22;21609;49.298;6.844;2022-12-29T06:10:17;16.50;54.10
35497;DHT22;21609;49.298;6.844;2022-12-29T06:12:42;16.50;54.00
35497;DHT22;21609;49.298;6.844;2022-12-29T06:15:08;16.50;54.10
35497;DHT22;21609;49.298;6.844;2022-12-29T06:17:34;16.50;54.10
35497;DHT22;21609;49.298;6.844;2022-12-29T06:20:00;16.50;54.10
35497;DHT22;21609;49.298;6.844;2022-12-29T06:22:26;16.50;54.10
35497;DHT22;21609;49.298;6.844;2022-12-29T06:24:52;16.40;54.30
35497;DHT22;21609;49.298;6.844;2022-12-29T06:27:17;16.40;54.30
35497;DHT22;21609;49.298;6.844;2022-12-29T06:29:43;16.50;54.30
35497;DHT22;21609;49.298;6.844;2022-12-29T06:32:09;16.50;54.10
35497;DHT22;21609;49.298;6.844;2022-12-29T06:34:34;16.50;54.10
35497;DHT22;21609;49.298;6.844;2022-12-29T06:37:00;16.50;54.00
35497;DHT22;21609;49.298;6.844;2022-12-29T06:39:26;16.50;54.10
35497;DHT22;21609;49.298;6.844;2022-12-29T06:41:53;16.50;54.10
35497;DHT22;21609;49.298;6.844;2022-12-29T06:44:22;16.50;54.10
35497;DHT22;21609;49.298;6.844;2022-12-29T06:46:47;16.50;54.10
35497;DHT22;21609;49.298;6.844;2022-12-29T06:49:13;16.50;54.10
35497;DHT22;21609;49.298;6.844;2022-12-29T06:51:39;16.50;54.10
35497;DHT22;21609;49.298;6.844;2022-12-29T06:54:05;16.50;54.10
35497;DHT22;21609;49.298;6.844;2022-12-29T06:56:31;16.50;54.00
35497;DHT22;21609;49.298;6.844;2022-12-29T06:58:57;16.50;54.10
35497;DHT22;21609;49.298;6.844;2022-12-29T07:01:22;16.50;54.10
35497;DHT22;21609;49.298;6.844;2022-12-29T07:03:48;16.50;54.00
35497;DHT22;21609;49.298;6.844;2022-12-29T07:06:14;16.50;54.10
35497;DHT22;21609;49.298;6.844;2022-12-29T07:08:40;16.50;54.10
35497;DHT22;21609;49.298;6.844;2022-12-29T07:11:06;16.50;54.10
35497;DHT22;21609;49.298;6.844;2022-12-29T07:13:31;16.50;54.10
35497;DHT22;21609;49.298;6.844;2022-12-29T07:15:57;16.70;53.90
35497;DHT22;21609;49.298;6.844;2022-12-29T07:18:22;16.80;53.60
35497;DHT22;21609;49.298;6.844;2022-12-29T07:20:48;16.80;53.40
35497;DHT22;21609;49.298;6.844;2022-12-29T07:23:13;17.00;53.30
35497;DHT22;21609;49.298;6.844;2022-12-29T07:25:39;17.10;53.10
35497;DHT22;21609;49.298;6.844;2022-12-29T07:28:06;17.20;52.90
35497;DHT22;21609;49.298;6.844;2022-12-29T07:30:32;17.30;52.80
35497;DHT22;21609;49.298;6.844;2022-12-29T07:32:58;17.40;52.80
35497;DHT22;21609;49.298;6.844;2022-12-29T07:35:23;17.40;52.80
35497;DHT22;21609;49.298;6.844;2022-12-29T07:37:49;17.40;52.70
35497;DHT22;21609;49.298;6.844;2022-12-29T07:40:14;17.50;52.70
35497;DHT22;21609;49.298;6.844;2022-12-29T07:42:40;17.60;52.70
35497;DHT22;21609;49.298;6.844;2022-12-29T07:45:06;17.60;52.60
35497;DHT22;21609;49.298;6.844;2022-12-29T07:47:32;17.60;52.60
35497;DHT22;21609;49.298;6.844;2022-12-29T07:49:57;17.70;52.50
35497;DHT22;21609;49.298;6.844;2022-12-29T07:52:23;17.70;52.50
35497;DHT22;21609;49.298;6.844;2022-12-29T07:54:48;17.70;52.50
35497;DHT22;21609;49.298;6.844;2022-12-29T07:57:14;17.80;52.50
35497;DHT22;21609;49.298;6.844;2022-12-29T07:59:39;17.90;52.40
35497;DHT22;21609;49.298;6.844;2022-12-29T08:02:05;17.90;52.50
35497;DHT22;21609;49.298;6.844;2022-12-29T08:04:31;17.90;52.50
35497;DHT22;21609;49.298;6.844;2022-12-29T08:06:56;17.90;52.50
35497;DHT22;21609;49.298;6.844;2022-12-29T08:09:22;17.90;52.50
35497;DHT22;21609;49.298;6.844;2022-12-29T08:11:47;17.90;52.60
35497;DHT22;21609;49.298;6.844;2022-12-29T08:14:13;17.90;52.70
35497;DHT22;21609;49.298;6.844;2022-12-29T08:16:38;17.90;52.80
35497;DHT22;21609;49.298;6.844;2022-12-29T08:19:04;17.90;52.90
35497;DHT22;21609;49.298;6.844;2022-12-29T08:21:30;17.90;53.00
35497;DHT22;21609;49.298;6.844;2022-12-29T08:23:58;17.90;53.00
35497;DHT22;21609;49.298;6.844;2022-12-29T08:26:24;18.00;53.00
35497;DHT22;21609;49.298;6.844;2022-12-29T08:28:52;18.10;52.70
35497;DHT22;21609;49.298;6.844;2022-12-29T08:31:18;18.20;52.70
35497;DHT22;21609;49.298;6.844;2022-12-29T08:33:44;18.20;52.50
35497;DHT22;21609;49.298;6.844;2022-12-29T08:36:09;18.30;52.60
35497;DHT22;21609;49.298;6.844;2022-12-29T08:38:35;18.30;52.50
35497;DHT22;21609;49.298;6.844;2022-12-29T08:41:00;18.40;52.40
35497;DHT22;21609;49.298;6.844;2022-12-29T08:43:27;18.50;52.40
35497;DHT22;21609;49.298;6.844;2022-12-29T08:45:53;18.50;52.30
35497;DHT22;21609;49.298;6.844;2022-12-29T08:48:19;18.60;52.10
35497;DHT22;21609;49.298;6.844;2022-12-29T08:50:48;18.70;52.10
35497;DHT22;21609;49.298;6.844;2022-12-29T08:53:13;18.70;52.10
35497;DHT22;21609;49.298;6.844;2022-12-29T08:55:39;18.60;51.90
35497;DHT22;21609;49.298;6.844;2022-12-29T08:58:04;18.60;52.40
35497;DHT22;21609;49.298;6.844;2022-12-29T09:00:30;18.70;52.50
35497;DHT22;21609;49.298;6.844;2022-12-29T09:02:55;18.80;52.20
35497;DHT22;21609;49.298;6.844;2022-12-29T09:05:21;19.00;51.80
35497;DHT22;21609;49.298;6.844;2022-12-29T09:07:47;19.10;51.50
35497;DHT22;21609;49.298;6.844;2022-12-29T09:10:12;19.20;51.30
35497;DHT22;21609;49.298;6.844;2022-12-29T09:12:38;19.30;51.20
35497;DHT22;21609;49.298;6.844;2022-12-29T09:15:04;19.40;51.00
35497;DHT22;21609;49.298;6.844;2022-12-29T09:17:30;19.40;50.80
35497;DHT22;21609;49.298;6.844;2022-12-29T09:20:13;19.50;51.20
35497;DHT22;21609;49.298;6.844;2022-12-29T09:22:39;19.50;50.90
35497;DHT22;21609;49.298;6.844;2022-12-29T09:25:05;19.60;50.90
35497;DHT22;21609;49.298;6.844;2022-12-29T09:27:31;19.70;50.80
35497;DHT22;21609;49.298;6.844;2022-12-29T09:29:57;19.70;50.80
35497;DHT22;21609;49.298;6.844;2022-12-29T09:32:22;19.80;50.80
35497;DHT22;21609;49.298;6.844;2022-12-29T09:34:48;19.80;50.80
35497;DHT22;21609;49.298;6.844;2022-12-29T09:37:14;19.70;51.30
35497;DHT22;21609;49.298;6.844;2022-12-29T09:39:39;19.50;51.70
35497;DHT22;21609;49.298;6.844;2022-12-29T09:42:37;19.50;52.00
35497;DHT22;21609;49.298;6.844;2022-12-29T09:45:26;19.40;52.40
35497;DHT22;21609;49.298;6.844;2022-12-29T09:47:54;19.40;52.70
35497;DHT22;21609;49.298;6.844;2022-12-29T09:50:25;19.30;53.00
35497;DHT22;21609;49.298;6.844;2022-12-29T09:53:20;19.40;53.10
35497;DHT22;21609;49.298;6.844;2022-12-29T09:55:53;19.40;53.10
35497;DHT22;21609;49.298;6.844;2022-12-29T09:58:28;19.40;53.30
35497;DHT22;21609;49.298;6.844;2022-12-29T10:01:38;19.40;53.40
35497;DHT22;21609;49.298;6.844;2022-12-29T10:03:57;19.50;53.40
35497;DHT22;21609;49.298;6.844;2022-12-29T10:06:46;19.50;53.40
35497;DHT22;21609;49.298;6.844;2022-12-29T10:09:26;19.40;53.50
35497;DHT22;21609;49.298;6.844;2022-12-29T10:14:52;19.40;53.80
35497;DHT22;21609;49.298;6.844;2022-12-29T10:17:36;19.40;53.80
35497;DHT22;21609;49.298;6.844;2022-12-29T10:23:40;19.40;54.00
35497;DHT22;21609;49.298;6.844;2022-12-29T10:26:18;19.40;54.00
35497;DHT22;21609;49.298;6.844;2022-12-29T10:28:57;19.40;54.00
35497;DHT22;21609;49.298;6.844;2022-12-29T10:31:27;19.40;53.80
35497;DHT22;21609;49.298;6.844;2022-12-29T10:33:59;19.40;54.10
35497;DHT22;21609;49.298;6.844;2022-12-29T10:36:34;19.40;52.70
35497;DHT22;21609;49.298;6.844;2022-12-29T10:41:49;19.20;51.90
35497;DHT22;21609;49.298;6.844;2022-12-29T10:44:17;19.20;51.60
35497;DHT22;21609;49.298;6.844;2022-12-29T10:46:44;18.90;51.40
35497;DHT22;21609;49.298;6.844;2022-12-29T10:49:17;18.80;52.60
35497;DHT22;21609;49.298;6.844;2022-12-29T10:51:46;18.80;52.30
35497;DHT22;21609;49.298;6.844;2022-12-29T10:54:20;18.80;52.60
35497;DHT22;21609;49.298;6.844;2022-12-29T10:56:53;18.80;52.70
35497;DHT22;21609;49.298;6.844;2022-12-29T10:59:30;18.80;52.60
35497;DHT22;21609;49.298;6.844;2022-12-29T11:02:13;18.70;52.70
35497;DHT22;21609;49.298;6.844;2022-12-29T11:07:25;18.80;52.70
35497;DHT22;21609;49.298;6.844;2022-12-29T11:09:51;18.80;53.00
35497;DHT22;21609;49.298;6.844;2022-12-29T11:12:29;18.90;52.70
35497;DHT22;21609;49.298;6.844;2022-12-29T11:17:58;18.90;52.60
35497;DHT22;21609;49.298;6.844;2022-12-29T11:20:35;18.90;52.70
35497;DHT22;21609;49.298;6.844;2022-12-29T11:23:02;18.90;52.70
35497;DHT22;21609;49.298;6.844;2022-12-29T11:25:28;18.90;52.60
35497;DHT22;21609;49.298;6.844;2022-12-29T11:28:00;18.90;52.70
35497;DHT22;21609;49.298;6.844;2022-12-29T11:30:30;18.90;52.80
35497;DHT22;21609;49.298;6.844;2022-12-29T11:32:57;18.90;52.60
35497;DHT22;21609;49.298;6.844;2022-12-29T11:35:39;18.90;52.50
35497;DHT22;21609;49.298;6.844;2022-12-29T11:38:12;18.90;52.80
35497;DHT22;21609;49.298;6.844;2022-12-29T11:40:43;19.10;52.70
35497;DHT22;21609;49.298;6.844;2022-12-29T11:43:29;19.20;52.60
35497;DHT22;21609;49.298;6.844;2022-12-29T11:45:56;19.10;52.30
35497;DHT22;21609;49.298;6.844;2022-12-29T11:48:22;19.10;52.40
35497;DHT22;21609;49.298;6.844;2022-12-29T11:50:55;19.00;52.50
35497;DHT22;21609;49.298;6.844;2022-12-29T11:53:28;18.90;52.70
35497;DHT22;21609;49.298;6.844;2022-12-29T11:56:01;18.90;52.70
35497;DHT22;21609;49.298;6.844;2022-12-29T11:58:36;18.90;52.70
35497;DHT22;21609;49.298;6.844;2022-12-29T12:03:38;18.90;52.90
35497;DHT22;21609;49.298;6.844;2022-12-29T12:06:07;18.90;52.90
35497;DHT22;21609;49.298;6.844;2022-12-29T12:09:02;18.90;52.90
35497;DHT22;21609;49.298;6.844;2022-12-29T12:11:39;18.90;52.80
35497;DHT22;21609;49.298;6.844;2022-12-29T12:14:25;18.80;52.90
35497;DHT22;21609;49.298;6.844;2022-12-29T12:17:05;18.80;52.90
35497;DHT22;21609;49.298;6.844;2022-12-29T12:19:41;18.80;52.90
35497;DHT22;21609;49.298;6.844;2022-12-29T12:22:35;18.80;53.00
35497;DHT22;21609;49.298;6.844;2022-12-29T12:27:41;18.70;53.00
35497;DHT22;21609;49.298;6.844;2022-12-29T12:30:21;18.70;53.00
35497;DHT22;21609;49.298;6.844;2022-12-29T12:33:10;18.70;53.00
35497;DHT22;21609;49.298;6.844;2022-12-29T12:36:04;18.70;53.10
35497;DHT22;21609;49.298;6.844;2022-12-29T12:39:10;18.70;53.10
35497;DHT22;21609;49.298;6.844;2022-12-29T12:41:49;18.80;53.10
35497;DHT22;21609;49.298;6.844;2022-12-29T12:47:42;18.80;52.80
35497;DHT22;21609;49.298;6.844;2022-12-29T12:50:06;18.80;53.00
35497;DHT22;21609;49.298;6.844;2022-12-29T13:09:32;18.80;53.10
35497;DHT22;21609;49.298;6.844;2022-12-29T13:12:32;18.80;53.10
35497;DHT22;21609;49.298;6.844;2022-12-29T13:15:21;18.80;53.20
35497;DHT22;21609;49.298;6.844;2022-12-29T13:18:37;18.70;53.10
35497;DHT22;21609;49.298;6.844;2022-12-29T13:23:58;18.70;53.20
35497;DHT22;21609;49.298;6.844;2022-12-29T13:26:50;18.70;53.30
35497;DHT22;21609;49.298;6.844;2022-12-29T13:32:25;18.70;53.30
35497;DHT22;21609;49.298;6.844;2022-12-29T13:38:07;18.70;53.30
35497;DHT22;21609;49.298;6.844;2022-12-29T13:40:38;18.70;53.30
35497;DHT22;21609;49.298;6.844;2022-12-29T13:43:05;18.70;53.20
35497;DHT22;21609;49.298;6.844;2022-12-29T13:45:32;18.70;53.20
35497;DHT22;21609;49.298;6.844;2022-12-29T13:48:19;18.70;53.20
35497;DHT22;21609;49.298;6.844;2022-12-29T13:50:49;18.70;53.10
35497;DHT22;21609;49.298;6.844;2022-12-29T13:58:46;18.70;53.10
35497;DHT22;21609;49.298;6.844;2022-12-29T14:01:22;18.70;53.10
35497;DHT22;21609;49.298;6.844;2022-12-29T14:03:57;18.70;53.10
35497;DHT22;21609;49.298;6.844;2022-12-29T14:09:03;18.70;53.10
35497;DHT22;21609;49.298;6.844;2022-12-29T14:11:32;18.70;53.10
35497;DHT22;21609;49.298;6.844;2022-12-29T14:13:59;18.70;53.10
35497;DHT22;21609;49.298;6.844;2022-12-29T14:16:35;18.70;53.20
35497;DHT22;21609;49.298;6.844;2022-12-29T14:19:26;18.60;53.10
35497;DHT22;21609;49.298;6.844;2022-12-29T14:22:04;18.70;53.20
35497;DHT22;21609;49.298;6.844;2022-12-29T14:27:51;18.60;53.10
35497;DHT22;21609;49.298;6.844;2022-12-29T14:29:47;18.60;53.20
35497;DHT22;21609;49.298;6.844;2022-12-29T14:34:51;18.60;53.30
35497;DHT22;21609;49.298;6.844;2022-12-29T14:37:34;18.60;53.20
35497;DHT22;21609;49.298;6.844;2022-12-29T14:40:18;18.60;53.30
35497;DHT22;21609;49.298;6.844;2022-12-29T14:42:46;18.50;53.30
35497;DHT22;21609;49.298;6.844;2022-12-29T14:47:43;18.50;53.30
35497;DHT22;21609;49.298;6.844;2022-12-29T14:50:23;18.50;53.40
35497;DHT22;21609;49.298;6.844;2022-12-29T14:52:59;18.50;53.50
35497;DHT22;21609;49.298;6.844;2022-12-29T14:58:02;18.40;53.50
35497;DHT22;21609;49.298;6.844;2022-12-29T15:00:33;18.40;53.60
35497;DHT22;21609;49.298;6.844;2022-12-29T15:03:18;18.40;53.60
35497;DHT22;21609;49.298;6.844;2022-12-29T15:05:53;18.40;53.60
35497;DHT22;21609;49.298;6.844;2022-12-29T15:08:22;18.40;53.60
35497;DHT22;21609;49.298;6.844;2022-12-29T15:10:55;18.40;53.50
35497;DHT22;21609;49.298;6.844;2022-12-29T15:13:24;18.40;53.50
35497;DHT22;21609;49.298;6.844;2022-12-29T15:15:51;18.30;53.50
35497;DHT22;21609;49.298;6.844;2022-12-29T15:18:29;18.30;53.50
35497;DHT22;21609;49.298;6.844;2022-12-29T15:21:05;18.30;53.50
35497;DHT22;21609;49.298;6.844;2022-12-29T15:23:33;18.30;53.50
35497;DHT22;21609;49.298;6.844;2022-12-29T15:26:05;18.30;53.50
35497;DHT22;21609;49.298;6.844;2022-12-29T15:28:45;18.30;53.50
35497;DHT22;21609;49.298;6.844;2022-12-29T15:31:17;18.30;53.60
35497;DHT22;21609;49.298;6.844;2022-12-29T15:33:45;18.30;53.50
35497;DHT22;21609;49.298;6.844;2022-12-29T15:36:18;18.30;53.60
35497;DHT22;21609;49.298;6.844;2022-12-29T15:38:44;18.30;53.60
35497;DHT22;21609;49.298;6.844;2022-12-29T15:41:33;18.30;53.60
35497;DHT22;21609;49.298;6.844;2022-12-29T15:44:25;18.20;53.60
35497;DHT22;21609;49.298;6.844;2022-12-29T15:46:51;18.20;54.30
35497;DHT22;21609;49.298;6.844;2022-12-29T15:49:17;18.20;53.70
35497;DHT22;21609;49.298;6.844;2022-12-29T15:51:43;18.10;53.70
35497;DHT22;21609;49.298;6.844;2022-12-29T15:54:17;18.20;53.70
35497;DHT22;21609;49.298;6.844;2022-12-29T15:56:43;18.20;53.50
35497;DHT22;21609;49.298;6.844;2022-12-29T16:01:53;18.10;53.60
35497;DHT22;21609;49.298;6.844;2022-12-29T16:04:20;18.10;53.70
35497;DHT22;21609;49.298;6.844;2022-12-29T16:09:36;18.10;53.80
35497;DHT22;21609;49.298;6.844;2022-12-29T16:12:17;18.10;53.90
35497;DHT22;21609;49.298;6.844;2022-12-29T16:14:50;18.10;53.90
35497;DHT22;21609;49.298;6.844;2022-12-29T16:17:21;18.00;53.80
35497;DHT22;21609;49.298;6.844;2022-12-29T16:19:52;18.00;53.80
35497;DHT22;21609;49.298;6.844;2022-12-29T16:22:39;18.00;53.90
35497;DHT22;21609;49.298;6.844;2022-12-29T16:25:22;18.00;53.80
35497;DHT22;21609;49.298;6.844;2022-12-29T16:27:49;18.00;53.80
35497;DHT22;21609;49.298;6.844;2022-12-29T16:30:22;18.00;53.70
35497;DHT22;21609;49.298;6.844;2022-12-29T16:32:54;18.00;53.70
35497;DHT22;21609;49.298;6.844;2022-12-29T16:35:22;18.00;53.70
35497;DHT22;21609;49.298;6.844;2022-12-29T16:38:06;18.00;53.80
35497;DHT22;21609;49.298;6.844;2022-12-29T16:40:32;18.00;53.80
35497;DHT22;21609;49.298;6.844;2022-12-29T16:43:01;18.00;53.80
35497;DHT22;21609;49.298;6.844;2022-12-29T16:50:41;18.00;53.90
35497;DHT22;21609;49.298;6.844;2022-12-29T16:53:21;18.00;53.80
35497;DHT22;21609;49.298;6.844;2022-12-29T16:55:50;17.90;53.80
35497;DHT22;21609;49.298;6.844;2022-12-29T16:58:26;17.90;53.80
35497;DHT22;21609;49.298;6.844;2022-12-29T17:00:59;17.90;53.80
35497;DHT22;21609;49.298;6.844;2022-12-29T17:03:43;17.90;53.80
35497;DHT22;21609;49.298;6.844;2022-12-29T17:06:16;17.90;53.80
35497;DHT22;21609;49.298;6.844;2022-12-29T17:08:43;17.90;53.80
35497;DHT22;21609;49.298;6.844;2022-12-29T17:11:32;17.90;53.80
35497;DHT22;21609;49.298;6.844;2022-12-29T17:14:40;17.90;53.80
35497;DHT22;21609;49.298;6.844;2022-12-29T17:17:18;17.90;53.80
35497;DHT22;21609;49.298;6.844;2022-12-29T17:19:54;17.90;53.80
35497;DHT22;21609;49.298;6.844;2022-12-29T17:22:26;17.90;53.90
35497;DHT22;21609;49.298;6.844;2022-12-29T17:24:53;17.90;53.90
35497;DHT22;21609;49.298;6.844;2022-12-29T17:27:37;17.90;53.90
35497;DHT22;21609;49.298;6.844;2022-12-29T17:30:12;17.90;53.80
35497;DHT22;21609;49.298;6.844;2022-12-29T17:32:39;17.90;53.80
35497;DHT22;21609;49.298;6.844;2022-12-29T17:35:05;18.00;53.80
35497;DHT22;21609;49.298;6.844;2022-12-29T17:37:37;18.00;53.70
35497;DHT22;21609;49.298;6.844;2022-12-29T17:40:05;18.00;53.70
35497;DHT22;21609;49.298;6.844;2022-12-29T17:42:32;18.00;53.60
35497;DHT22;21609;49.298;6.844;2022-12-29T17:45:03;18.00;53.70
35497;DHT22;21609;49.298;6.844;2022-12-29T17:47:29;18.00;53.60